Flight Track Log - Related Links

Times and Time Zones

All times are in EDT time to prevent confusion due to time zone crossing. See the NLI239 flight status page for this flight to view local times or setup timezone preferences in your user account.

Time Position Orientation Groundspeed Altitude Reporting Facility
EDT Latitude Longitude Course Direction KTS MPH feet Rate Location/Type
Wed 05:51:29 PM 52.1667 -106.7500 299° West 150 173 2,100  Level Winnipeg Center
Wed 05:52:29 PM 52.1833 -106.8167 292° West 160 184 3,900 1,900 Climbing Winnipeg Center
Wed 05:53:29 PM 52.2167 -106.8500 329° Northwest 160 184 5,900 1,900 Climbing Winnipeg Center
Wed 05:54:29 PM 52.2333 -106.9167 292° West 160 184 7,700 1,650 Climbing Winnipeg Center
Wed 05:55:29 PM 52.2500 -106.9667 299° West 160 184 9,200 1,600 Climbing Winnipeg Center
Wed 05:56:29 PM 52.3000 -107.0333 321° Northwest 170 196 10,900 1,550 Climbing Winnipeg Center
Wed 05:57:29 PM 52.3000 -107.1167 270° West 170 196 12,300 1,500 Climbing Winnipeg Center
Wed 05:58:29 PM 52.3333 -107.1833 309° West 180 207 13,900 1,500 Climbing Winnipeg Center
Wed 05:59:29 PM 52.3667 -107.2500 309° West 180 207 15,300 1,450 Climbing Winnipeg Center
Wed 06:00:29 PM 52.3833 -107.3000 299° West 180 207 16,800 1,350 Climbing Winnipeg Center
Wed 06:01:29 PM 52.4167 -107.4000 299° West 190 219 18,000 1,200 Climbing Winnipeg Center
Wed 06:02:29 PM 52.4667 -107.4667 321° Northwest 190 219 19,200 1,150 Climbing Winnipeg Center
Wed 06:03:29 PM 52.4833 -107.5167 299° West 190 219 20,300 1,050 Climbing Winnipeg Center
Wed 06:04:29 PM 52.5167 -107.6167 299° West 190 219 21,300 950 Climbing Winnipeg Center
Wed 06:05:29 PM 52.5500 -107.6667 318° Northwest 190 219 22,200 900 Climbing Winnipeg Center
Wed 06:06:29 PM 52.5667 -107.7667 285° West 200 230 23,100 800 Climbing Winnipeg Center
Wed 06:07:29 PM 52.6000 -107.8333 309° West 200 230 23,800 650 Climbing Winnipeg Center
Wed 06:08:29 PM 52.6333 -107.9167 303° West 210 242 24,400 650 Climbing Winnipeg Center
Wed 06:09:29 PM 52.6667 -108.0167 299° West 210 242 25,100 600 Climbing Winnipeg Center
Wed 06:10:29 PM 52.7000 -108.0667 318° Northwest 210 242 25,600 450 Climbing Winnipeg Center
Wed 06:11:29 PM 52.7333 -108.1667 299° West 210 242 26,000 200 Climbing Winnipeg Center
Wed 06:12:29 PM 52.7667 -108.2333 310° West 220 253 26,000  Level Winnipeg Center
Wed 06:13:29 PM 52.8000 -108.3167 304° West 230 265 26,000  Level Winnipeg Center
Wed 06:14:29 PM 52.8500 -108.4167 310° West 240 276 26,000  Level Winnipeg Center
Wed 06:15:29 PM 52.8667 -108.5167 285° West 240 276 26,000  Level Winnipeg Center
Wed 06:16:29 PM 52.9167 -108.6000 315° West 240 276 26,000  Level Winnipeg Center
Wed 06:17:29 PM 52.9500 -108.7000 299° West 240 276 26,000  Level Winnipeg Center
Wed 06:18:29 PM 52.9833 -108.7833 304° West 240 276 26,000  Level Winnipeg Center
Wed 06:19:29 PM 53.0167 -108.8833 299° West 240 276 26,000  Level Winnipeg Center
Wed 06:20:29 PM 53.0667 -108.9833 310° West 240 276 26,000  Level Winnipeg Center
Wed 06:21:29 PM 53.0833 -109.0667 288° West 240 276 26,000  Level Winnipeg Center
Wed 06:22:29 PM 53.1167 -109.1667 299° West 250 288 26,000  Level Winnipeg Center
Wed 06:23:29 PM 53.1667 -109.2667 310° West 250 288 26,000  Level Winnipeg Center
Wed 06:24:29 PM 53.1833 -109.3500 288° West 240 276 26,000  Level Winnipeg Center
Wed 06:25:29 PM 53.2333 -109.4500 310° West 240 276 26,000  Level Winnipeg Center
Wed 06:26:29 PM 53.2667 -109.5500 299° West 240 276 26,000  Level Winnipeg Center
Wed 06:27:29 PM 53.3167 -109.6500 310° West 240 276 26,000  Level Winnipeg Center
Wed 06:28:29 PM 53.3333 -109.7333 289° West 250 288 26,000  Level Winnipeg Center
Wed 06:29:29 PM 53.3833 -109.8333 310° West 250 288 26,000  Level Winnipeg Center
Wed 06:30:29 PM 53.4167 -109.9333 299° West 250 288 26,000  Level Winnipeg Center
Wed 06:31:29 PM 53.4500 -110.0333 299° West 240 276 26,000  Level Winnipeg Center
Wed 06:32:29 PM 53.5000 -110.1333 310° West 240 276 26,000  Level Winnipeg Center
Wed 06:33:29 PM 53.5167 -110.2167 289° West 240 276 26,000  Level Winnipeg Center
Wed 06:34:29 PM 53.5667 -110.3167 310° West 230 265 26,000  Level Winnipeg Center
Wed 06:35:29 PM 53.5833 -110.4167 286° West 240 276 26,000  Level Winnipeg Center
Wed 06:36:29 PM 53.6167 -110.5167 299° West 240 276 26,000  Level Winnipeg Center
Wed 06:37:29 PM 53.6667 -110.6167 310° West 240 276 26,000  Level Winnipeg Center
Wed 06:38:29 PM 53.6833 -110.7000 289° West 240 276 26,000  Level Winnipeg Center
Wed 06:39:29 PM 53.7167 -110.8000 299° West 240 276 26,000  Level Winnipeg Center
Wed 06:40:29 PM 53.7667 -110.9000 310° West 240 276 26,000  Level Winnipeg Center
Wed 06:41:29 PM 53.7833 -111.0000 286° West 250 288 26,000  Level Winnipeg Center
Wed 06:42:29 PM 53.8333 -111.1000 310° West 240 276 26,000  Level Winnipeg Center
Wed 06:43:29 PM 53.8667 -111.2000 300° West 240 276 26,000  Level Winnipeg Center
Wed 06:44:29 PM 53.9000 -111.3000 300° West 240 276 26,000  Level Winnipeg Center
Wed 06:45:29 PM 53.9333 -111.4000 300° West 240 276 26,000  Level Winnipeg Center
Wed 06:46:29 PM 53.9667 -111.5000 300° West 240 276 26,000  Level Winnipeg Center
Wed 06:47:29 PM 54.0000 -111.6000 300° West 240 276 26,000  Level Winnipeg Center
Wed 06:48:29 PM 54.0333 -111.6833 304° West 240 276 26,000  Level Winnipeg Center
Wed 06:49:29 PM 54.0667 -111.7833 300° West 240 276 26,000  Level Winnipeg Center
Wed 06:50:29 PM 54.1000 -111.8833 300° West 240 276 26,000  Level Winnipeg Center
Wed 06:51:29 PM 54.1500 -111.9833 311° West 240 276 26,000  Level Winnipeg Center
Wed 06:52:29 PM 54.1667 -112.0833 286° West 250 288 26,000  Level Winnipeg Center
Wed 06:53:29 PM 54.2000 -112.2167 293° West 250 288 26,000  Level Winnipeg Center
Wed 06:54:29 PM 54.2333 -112.2833 311° West 250 288 26,000  Level Winnipeg Center
Wed 06:55:29 PM 54.2833 -112.3833 311° West 250 288 26,000  Level Winnipeg Center
Wed 06:56:29 PM 54.3000 -112.5167 282° West 250 288 26,000  Level Winnipeg Center
Wed 06:57:29 PM 54.3333 -112.6167 300° West 250 288 26,000  Level Winnipeg Center
Wed 06:58:29 PM 54.3667 -112.7167 300° West 250 288 26,000  Level Winnipeg Center
Wed 06:59:29 PM 54.4167 -112.8167 311° West 250 288 26,000  Level Winnipeg Center
Wed 07:00:29 PM 54.4500 -112.9167 300° West 250 288 26,000  Level Winnipeg Center
Wed 07:01:29 PM 54.4667 -113.0167 286° West 250 288 26,000  Level Winnipeg Center
Wed 07:02:56 PM 54.5167 -113.1500 303° West 240 276 26,000  Level Edmonton Center
Wed 07:03:56 PM 54.5500 -113.2333 305° West 250 288 26,000  Level Edmonton Center
Wed 07:04:56 PM 54.5667 -113.3333 286° West 250 288 26,000  Level Edmonton Center
Wed 07:05:56 PM 54.6167 -113.4333 311° West 250 288 26,000  Level Edmonton Center
Wed 07:06:56 PM 54.6500 -113.5500 296° West 240 276 26,000  Level Edmonton Center
Wed 07:07:56 PM 54.6833 -113.6500 300° West 240 276 26,000  Level Edmonton Center
Wed 07:08:56 PM 54.7167 -113.7833 293° West 240 276 26,000  Level Edmonton Center
Wed 07:09:56 PM 54.7333 -113.8667 289° West 240 276 26,000  Level Edmonton Center
Wed 07:10:56 PM 54.7833 -113.9667 311° West 240 276 26,000  Level Edmonton Center
Wed 07:11:56 PM 54.8167 -114.0667 300° West 240 276 26,000  Level Edmonton Center
Wed 07:12:56 PM 54.8333 -114.1833 284° West 240 276 26,000  Level Edmonton Center
Wed 07:13:56 PM 54.8833 -114.2833 311° West 240 276 26,000  Level Edmonton Center
Wed 07:14:56 PM 54.9000 -114.3833 286° West 240 276 26,000  Level Edmonton Center
Wed 07:15:56 PM 54.9333 -114.4833 300° West 240 276 26,000  Level Edmonton Center
Wed 07:16:56 PM 54.9667 -114.5833 300° West 240 276 26,000  Level Edmonton Center
Wed 07:17:56 PM 55.0000 -114.7000 297° West 240 276 26,000  Level Edmonton Center
Wed 07:18:56 PM 55.0167 -114.8000 286° West 250 288 26,000  Level Edmonton Center
Wed 07:19:56 PM 55.0667 -114.9000 311° West 240 276 26,000  Level Edmonton Center
Wed 07:20:56 PM 55.1000 -115.0000 300° West 240 276 26,000  Level Edmonton Center
Wed 07:21:56 PM 55.1333 -115.1333 294° West 240 276 26,000  Level Edmonton Center
Wed 07:22:56 PM 55.1667 -115.2167 305° West 240 276 26,000  Level Edmonton Center
Wed 07:23:56 PM 55.1833 -115.3167 286° West 240 276 26,000  Level Edmonton Center
Wed 07:24:56 PM 55.2333 -115.4167 311° West 240 276 26,000  Level Edmonton Center
Wed 07:25:56 PM 55.2500 -115.5167 286° West 230 265 26,000  Level Edmonton Center
Wed 07:26:56 PM 55.2833 -115.6500 294° West 240 276 26,000  Level Edmonton Center
Wed 07:27:56 PM 55.3000 -115.7500 286° West 230 265 26,000  Level Edmonton Center
Wed 07:28:56 PM 55.3500 -115.8500 311° West 230 265 26,000 50 Level Edmonton Center
Wed 07:29:56 PM 55.3667 -115.9333 289° West 230 265 26,100  Climbing Edmonton Center
Wed 07:30:56 PM 55.4000 -116.0333 300° West 230 265 26,000 -50 Descending Edmonton Center
Wed 07:31:56 PM 55.4167 -116.1333 286° West 230 265 26,000 -100 Level Edmonton Center
Wed 07:32:56 PM 55.4667 -116.2333 311° West 240 276 25,800 -550 Descending Edmonton Center
Wed 07:33:56 PM 55.4833 -116.3667 282° West 240 276 24,900 -1,150 Descending Edmonton Center
Wed 07:34:56 PM 55.5167 -116.4667 301° West 260 299 23,500 -1,150 Descending Edmonton Center
Wed 07:35:56 PM 55.5500 -116.6000 294° West 260 299 22,600 -850 Descending Edmonton Center
Wed 07:36:56 PM 55.5833 -116.7000 301° West 260 299 21,800 -1,100 Descending Edmonton Center
Wed 07:37:56 PM 55.6000 -116.8333 283° West 250 288 20,400 -1,450 Descending Edmonton Center
Wed 07:38:56 PM 55.6500 -116.9333 312° West 270 311 18,900 -1,550 Descending Edmonton Center
Wed 07:39:56 PM 55.6833 -117.0667 294° West 270 311 17,300 -1,550 Descending Edmonton Center
Wed 07:40:56 PM 55.7167 -117.1667 301° West 270 311 15,800 -1,550 Descending Edmonton Center
Wed 07:41:56 PM 55.7500 -117.3000 294° West 270 311 14,200 -1,550 Descending Edmonton Center
Wed 07:42:56 PM 55.7833 -117.4333 294° West 270 311 12,700 -1,550 Descending Edmonton Center
Wed 07:43:56 PM 55.8000 -117.5667 283° West 270 311 11,100 -1,550 Descending Edmonton Center
Wed 07:44:56 PM 55.8500 -117.6667 312° West 270 311 9,600 -1,400 Descending Edmonton Center
Wed 07:45:56 PM 55.8667 -117.8000 283° West 270 311 8,300 -1,300 Descending Edmonton Center
Wed 07:46:56 PM 55.9000 -117.9000 301° West 260 299 7,000 -1,150 Descending Edmonton Center
Wed 07:47:56 PM 55.9333 -118.0000 301° West 240 276 6,000 -950 Descending Edmonton Center
Wed 07:48:56 PM 55.9667 -118.1500 292° West 230 265 5,100 -900 Descending Edmonton Center
Wed 07:50:00 PM 56.0213 -118.2306 301° West  Level FlightAware Approximate
Wed 07:57:00 PM 56.0667 -118.4167 287° West  Level FlightAware Approximate
Wed 07:58:00 PM 56.0667 -118.4167 287° West  Level FlightAware Approximate
Wed 07:59:00 PM 56.0667 -118.4167 287° West  Level FlightAware Approximate
Wed 08:00:00 PM 56.0667 -118.4167 287° West  Level FlightAware Approximate
Wed 08:01:00 PM 56.0667 -118.4167 287° West  Level FlightAware Approximate
Wed 08:02:00 PM 56.0667 -118.4167 287° West  Level FlightAware Approximate
Wed 08:03:00 PM 56.0667 -118.4167 287° West  Level FlightAware Approximate
Wed 08:04:00 PM 56.0667 -118.4167 287° West  Level FlightAware Approximate
Wed 08:05:00 PM 56.0667 -118.4167 287° West  Level FlightAware Approximate
Wed 08:06:00 PM 56.0667 -118.4167 287° West  Level FlightAware Approximate
Wed 08:07:00 PM 56.0667 -118.4167 287° West  Level FlightAware Approximate

Login

Don't have an account? Register now (free) for customized features, flight alerts, and more!